sensor_id;sensor_type;location;lat;lon;timestamp;pressure;altitude;pressure_sealevel;temperature;humidity
6020;BME280;3038;51.122;6.840;2022-11-12T00:12:37;102889.44;;;7.89;84.36
6020;BME280;3038;51.122;6.840;2022-11-12T00:15:04;102889.63;;;7.86;83.86
6020;BME280;3038;51.122;6.840;2022-11-12T00:30:08;102889.28;;;7.76;84.27
6020;BME280;3038;51.122;6.840;2022-11-12T01:38:40;102908.41;;;7.02;85.76
6020;BME280;3038;51.122;6.840;2022-11-12T01:42:09;102904.72;;;7.05;86.59
6020;BME280;3038;51.122;6.840;2022-11-12T01:45:45;102912.59;;;7.06;86.08
6020;BME280;3038;51.122;6.840;2022-11-12T02:08:41;102884.63;;;7.02;85.78
6020;BME280;3038;51.122;6.840;2022-11-12T02:32:03;102898.50;;;6.90;85.48
6020;BME280;3038;51.122;6.840;2022-11-12T02:35:12;102894.91;;;6.91;85.71
6020;BME280;3038;51.122;6.840;2022-11-12T03:13:19;102908.66;;;6.64;84.50
6020;BME280;3038;51.122;6.840;2022-11-12T03:20:04;102905.25;;;6.62;84.18
6020;BME280;3038;51.122;6.840;2022-11-12T03:23:15;102892.19;;;6.59;84.59
6020;BME280;3038;51.122;6.840;2022-11-12T03:26:31;102893.16;;;6.58;83.85
6020;BME280;3038;51.122;6.840;2022-11-12T04:13:03;102873.69;;;6.26;85.56
6020;BME280;3038;51.122;6.840;2022-11-12T04:43:09;102851.59;;;6.11;85.33
6020;BME280;3038;51.122;6.840;2022-11-12T04:46:33;102853.53;;;6.08;86.68
6020;BME280;3038;51.122;6.840;2022-11-12T05:08:10;102838.78;;;6.04;86.12
6020;BME280;3038;51.122;6.840;2022-11-12T05:45:33;102810.38;;;5.74;87.90
6020;BME280;3038;51.122;6.840;2022-11-12T06:04:58;102804.56;;;5.67;87.57
6020;BME280;3038;51.122;6.840;2022-11-12T06:07:35;102807.31;;;5.66;87.34
6020;BME280;3038;51.122;6.840;2022-11-12T06:13:41;102815.13;;;5.67;88.02
6020;BME280;3038;51.122;6.840;2022-11-12T06:16:22;102821.94;;;5.72;88.16
6020;BME280;3038;51.122;6.840;2022-11-12T06:30:24;102830.63;;;5.74;87.59
6020;BME280;3038;51.122;6.840;2022-11-12T06:33:58;102838.63;;;5.72;87.51
6020;BME280;3038;51.122;6.840;2022-11-12T06:41:55;102844.72;;;5.73;87.98
6020;BME280;3038;51.122;6.840;2022-11-12T06:49:16;102851.94;;;5.69;87.77
6020;BME280;3038;51.122;6.840;2022-11-12T06:56:06;102864.13;;;5.72;86.29
6020;BME280;3038;51.122;6.840;2022-11-12T07:06:28;102881.78;;;5.70;87.45
6020;BME280;3038;51.122;6.840;2022-11-12T07:20:22;102882.03;;;5.82;86.30
6020;BME280;3038;51.122;6.840;2022-11-12T07:30:51;102881.53;;;5.93;86.15
6020;BME280;3038;51.122;6.840;2022-11-12T07:34:09;102884.03;;;5.96;86.33
6020;BME280;3038;51.122;6.840;2022-11-12T07:37:56;102879.13;;;6.06;86.25
6020;BME280;3038;51.122;6.840;2022-11-12T07:53:18;102880.56;;;6.46;86.25
6020;BME280;3038;51.122;6.840;2022-11-12T08:11:04;102886.91;;;6.92;85.13
6020;BME280;3038;51.122;6.840;2022-11-12T08:20:43;102874.31;;;7.29;83.73
6020;BME280;3038;51.122;6.840;2022-11-12T08:23:09;102887.81;;;7.40;84.22
6020;BME280;3038;51.122;6.840;2022-11-12T08:30:01;102895.78;;;7.70;83.04
6020;BME280;3038;51.122;6.840;2022-11-12T08:33:05;102893.00;;;7.88;82.79
6020;BME280;3038;51.122;6.840;2022-11-12T08:35:50;102888.53;;;8.04;81.63
6020;BME280;3038;51.122;6.840;2022-11-12T08:38:29;102892.94;;;8.19;81.35
6020;BME280;3038;51.122;6.840;2022-11-12T08:41:06;102896.34;;;8.36;81.54
6020;BME280;3038;51.122;6.840;2022-11-12T08:43:45;102892.91;;;8.49;81.14
6020;BME280;3038;51.122;6.840;2022-11-12T08:46:25;102901.53;;;8.67;79.73
6020;BME280;3038;51.122;6.840;2022-11-12T08:48:56;102889.25;;;8.81;79.65
6020;BME280;3038;51.122;6.840;2022-11-12T08:51:31;102890.00;;;8.97;79.12
6020;BME280;3038;51.122;6.840;2022-11-12T08:57:22;102882.56;;;9.31;76.86
6020;BME280;3038;51.122;6.840;2022-11-12T09:00:00;102878.19;;;9.44;76.84
6020;BME280;3038;51.122;6.840;2022-11-12T09:02:43;102878.88;;;9.60;76.66
6020;BME280;3038;51.122;6.840;2022-11-12T09:05:09;102893.81;;;9.88;76.97
6020;BME280;3038;51.122;6.840;2022-11-12T09:07:45;102888.56;;;10.14;75.64
6020;BME280;3038;51.122;6.840;2022-11-12T09:10:26;102896.03;;;10.21;74.23
6020;BME280;3038;51.122;6.840;2022-11-12T09:13:01;102895.75;;;10.26;73.56
6020;BME280;3038;51.122;6.840;2022-11-12T09:15:27;102898.41;;;10.39;74.03
6020;BME280;3038;51.122;6.840;2022-11-12T09:18:01;102898.81;;;10.58;73.33
6020;BME280;3038;51.122;6.840;2022-11-12T09:23:14;102891.78;;;10.95;71.64
6020;BME280;3038;51.122;6.840;2022-11-12T09:26:17;102888.88;;;11.48;70.53
6020;BME280;3038;51.122;6.840;2022-11-12T09:29:08;102884.91;;;13.26;64.96
6020;BME280;3038;51.122;6.840;2022-11-12T09:31:34;102882.78;;;14.26;62.11
6020;BME280;3038;51.122;6.840;2022-11-12T09:33:59;102891.81;;;14.67;59.89
6020;BME280;3038;51.122;6.840;2022-11-12T09:36:24;102883.91;;;14.96;60.64
6020;BME280;3038;51.122;6.840;2022-11-12T09:38:50;102888.66;;;15.33;58.65
6020;BME280;3038;51.122;6.840;2022-11-12T09:41:45;102882.06;;;15.95;54.51
6020;BME280;3038;51.122;6.840;2022-11-12T09:44:17;102888.94;;;16.36;55.59
6020;BME280;3038;51.122;6.840;2022-11-12T09:46:51;102885.91;;;16.02;54.50
6020;BME280;3038;51.122;6.840;2022-11-12T09:52:13;102889.66;;;16.19;55.17
6020;BME280;3038;51.122;6.840;2022-11-12T09:54:35;102891.66;;;16.83;54.31
6020;BME280;3038;51.122;6.840;2022-11-12T09:57:01;102884.56;;;16.82;53.97
6020;BME280;3038;51.122;6.840;2022-11-12T09:59:31;102878.53;;;17.08;52.10
6020;BME280;3038;51.122;6.840;2022-11-12T10:01:59;102885.78;;;17.43;52.39
6020;BME280;3038;51.122;6.840;2022-11-12T10:07:41;102868.47;;;18.09;48.04
6020;BME280;3038;51.122;6.840;2022-11-12T10:10:29;102867.16;;;17.95;49.19
6020;BME280;3038;51.122;6.840;2022-11-12T10:13:24;102860.22;;;18.36;47.82
6020;BME280;3038;51.122;6.840;2022-11-12T10:24:09;102858.03;;;19.75;45.66
6020;BME280;3038;51.122;6.840;2022-11-12T10:26:36;102858.38;;;19.88;45.06
6020;BME280;3038;51.122;6.840;2022-11-12T10:31:35;102853.94;;;20.28;45.12
6020;BME280;3038;51.122;6.840;2022-11-12T10:34:19;102849.00;;;20.40;43.25
6020;BME280;3038;51.122;6.840;2022-11-12T10:37:01;102847.91;;;20.73;42.39
6020;BME280;3038;51.122;6.840;2022-11-12T10:39:35;102840.94;;;20.87;42.67
6020;BME280;3038;51.122;6.840;2022-11-12T10:42:10;102842.78;;;20.47;42.80
6020;BME280;3038;51.122;6.840;2022-11-12T10:44:40;102842.09;;;20.53;43.59
6020;BME280;3038;51.122;6.840;2022-11-12T10:47:24;102845.88;;;19.55;44.44
6020;BME280;3038;51.122;6.840;2022-11-12T10:53:03;102836.78;;;20.13;44.63
6020;BME280;3038;51.122;6.840;2022-11-12T10:55:31;102829.19;;;20.00;44.41
6020;BME280;3038;51.122;6.840;2022-11-12T11:00:27;102827.00;;;20.12;44.80
6020;BME280;3038;51.122;6.840;2022-11-12T11:02:53;102819.19;;;20.25;43.76
6020;BME280;3038;51.122;6.840;2022-11-12T11:05:55;102810.81;;;20.12;43.22
6020;BME280;3038;51.122;6.840;2022-11-12T11:13:41;102799.84;;;19.23;46.94
6020;BME280;3038;51.122;6.840;2022-11-12T11:16:16;102799.53;;;19.43;45.98
6020;BME280;3038;51.122;6.840;2022-11-12T11:18:59;102804.09;;;19.50;45.41
6020;BME280;3038;51.122;6.840;2022-11-12T11:24:24;102796.66;;;20.10;44.01
6020;BME280;3038;51.122;6.840;2022-11-12T11:38:00;102790.16;;;20.51;43.38
6020;BME280;3038;51.122;6.840;2022-11-12T11:40:31;102792.88;;;20.83;43.27
6020;BME280;3038;51.122;6.840;2022-11-12T11:56:43;102771.22;;;21.97;41.05
6020;BME280;3038;51.122;6.840;2022-11-12T12:04:50;102777.78;;;21.80;41.97
6020;BME280;3038;51.122;6.840;2022-11-12T12:10:04;102776.16;;;20.48;43.86
6020;BME280;3038;51.122;6.840;2022-11-12T12:15:33;102769.75;;;19.36;45.91
6020;BME280;3038;51.122;6.840;2022-11-12T12:18:21;102767.34;;;19.00;47.19
6020;BME280;3038;51.122;6.840;2022-11-12T12:23:34;102759.06;;;18.78;48.54
6020;BME280;3038;51.122;6.840;2022-11-12T12:26:05;102757.13;;;18.62;48.42
6020;BME280;3038;51.122;6.840;2022-11-12T12:28:57;102756.16;;;18.71;48.13
6020;BME280;3038;51.122;6.840;2022-11-12T12:31:30;102742.94;;;18.52;48.78
6020;BME280;3038;51.122;6.840;2022-11-12T12:34:03;102741.63;;;18.56;49.00
6020;BME280;3038;51.122;6.840;2022-11-12T12:36:35;102741.63;;;18.56;48.57
6020;BME280;3038;51.122;6.840;2022-11-12T12:39:17;102742.28;;;18.49;48.27
6020;BME280;3038;51.122;6.840;2022-11-12T12:41:55;102731.69;;;18.56;48.07
6020;BME280;3038;51.122;6.840;2022-11-12T12:44:23;102733.88;;;19.11;47.18
6020;BME280;3038;51.122;6.840;2022-11-12T12:47:09;102734.72;;;19.28;46.69
6020;BME280;3038;51.122;6.840;2022-11-12T12:49:37;102725.44;;;19.47;46.79
6020;BME280;3038;51.122;6.840;2022-11-12T12:52:03;102737.09;;;19.39;47.04
6020;BME280;3038;51.122;6.840;2022-11-12T12:57:28;102734.03;;;19.10;48.00
6020;BME280;3038;51.122;6.840;2022-11-12T13:02:58;102738.56;;;19.09;48.42
6020;BME280;3038;51.122;6.840;2022-11-12T13:05:29;102729.66;;;19.17;47.63
6020;BME280;3038;51.122;6.840;2022-11-12T13:08:00;102734.03;;;19.42;47.67
6020;BME280;3038;51.122;6.840;2022-11-12T13:13:23;102726.34;;;20.59;44.43
6020;BME280;3038;51.122;6.840;2022-11-12T13:15:55;102733.19;;;20.69;43.97
6020;BME280;3038;51.122;6.840;2022-11-12T13:21:17;102726.53;;;20.57;43.97
6020;BME280;3038;51.122;6.840;2022-11-12T13:26:56;102724.22;;;19.90;45.86
6020;BME280;3038;51.122;6.840;2022-11-12T13:40:15;102709.19;;;18.65;48.79
6020;BME280;3038;51.122;6.840;2022-11-12T13:42:41;102708.19;;;18.58;48.64
6020;BME280;3038;51.122;6.840;2022-11-12T13:45:14;102712.63;;;18.33;49.36
6020;BME280;3038;51.122;6.840;2022-11-12T13:47:40;102709.16;;;18.07;49.97
6020;BME280;3038;51.122;6.840;2022-11-12T13:50:07;102714.75;;;17.87;50.86
6020;BME280;3038;51.122;6.840;2022-11-12T13:52:34;102716.97;;;17.92;50.98
6020;BME280;3038;51.122;6.840;2022-11-12T13:55:05;102707.06;;;17.92;51.00
6020;BME280;3038;51.122;6.840;2022-11-12T13:57:31;102707.03;;;17.84;51.44
6020;BME280;3038;51.122;6.840;2022-11-12T14:00:28;102711.06;;;17.88;50.93
6020;BME280;3038;51.122;6.840;2022-11-12T14:03:03;102712.28;;;17.94;51.15
6020;BME280;3038;51.122;6.840;2022-11-12T14:05:33;102707.06;;;17.92;51.22
6020;BME280;3038;51.122;6.840;2022-11-12T14:13:27;102699.09;;;17.83;51.75
6020;BME280;3038;51.122;6.840;2022-11-12T14:21:36;102683.16;;;17.81;51.45
6020;BME280;3038;51.122;6.840;2022-11-12T14:24:01;102681.22;;;18.00;51.27
6020;BME280;3038;51.122;6.840;2022-11-12T14:26:41;102686.53;;;18.26;50.43
6020;BME280;3038;51.122;6.840;2022-11-12T14:29:15;102680.84;;;19.04;48.51
6020;BME280;3038;51.122;6.840;2022-11-12T14:31:41;102688.25;;;19.50;47.59
6020;BME280;3038;51.122;6.840;2022-11-12T14:36:46;102676.72;;;18.59;49.91
6020;BME280;3038;51.122;6.840;2022-11-12T14:39:12;102672.56;;;18.14;51.24
6020;BME280;3038;51.122;6.840;2022-11-12T14:41:40;102666.31;;;17.79;52.03
6020;BME280;3038;51.122;6.840;2022-11-12T14:44:15;102672.06;;;17.58;52.08
6020;BME280;3038;51.122;6.840;2022-11-12T14:46:47;102669.09;;;17.43;52.51
6020;BME280;3038;51.122;6.840;2022-11-12T14:52:11;102666.91;;;17.21;53.71
6020;BME280;3038;51.122;6.840;2022-11-12T14:54:45;102668.00;;;17.28;53.46
6020;BME280;3038;51.122;6.840;2022-11-12T14:57:32;102667.00;;;17.29;53.43
6020;BME280;3038;51.122;6.840;2022-11-12T14:59:57;102665.88;;;17.14;53.69
6020;BME280;3038;51.122;6.840;2022-11-12T15:02:26;102664.19;;;16.95;54.28
6020;BME280;3038;51.122;6.840;2022-11-12T15:05:01;102661.13;;;16.72;55.06
6020;BME280;3038;51.122;6.840;2022-11-12T15:07:38;102661.03;;;16.64;55.42
6020;BME280;3038;51.122;6.840;2022-11-12T15:13:06;102657.00;;;16.32;56.22
6020;BME280;3038;51.122;6.840;2022-11-12T15:15:34;102647.59;;;16.18;56.51
6020;BME280;3038;51.122;6.840;2022-11-12T15:18:04;102641.31;;;16.10;56.43
6020;BME280;3038;51.122;6.840;2022-11-12T15:20:30;102649.94;;;16.04;56.43
6020;BME280;3038;51.122;6.840;2022-11-12T15:22:56;102643.09;;;15.91;56.71
6020;BME280;3038;51.122;6.840;2022-11-12T15:25:27;102648.94;;;15.77;56.83
6020;BME280;3038;51.122;6.840;2022-11-12T15:27:53;102640.38;;;15.64;57.01
6020;BME280;3038;51.122;6.840;2022-11-12T15:32:49;102645.34;;;15.39;57.60
6020;BME280;3038;51.122;6.840;2022-11-12T15:37:49;102641.88;;;15.10;58.48
6020;BME280;3038;51.122;6.840;2022-11-12T15:40:17;102640.47;;;14.96;58.86
6020;BME280;3038;51.122;6.840;2022-11-12T15:42:43;102637.81;;;14.86;59.22
6020;BME280;3038;51.122;6.840;2022-11-12T15:45:17;102639.91;;;14.73;59.55
6020;BME280;3038;51.122;6.840;2022-11-12T15:47:43;102628.34;;;14.53;59.65
6020;BME280;3038;51.122;6.840;2022-11-12T15:52:40;102628.88;;;14.37;60.09
6020;BME280;3038;51.122;6.840;2022-11-12T15:55:07;102630.53;;;14.29;60.02
6020;BME280;3038;51.122;6.840;2022-11-12T15:57:38;102633.31;;;14.18;60.66
6020;BME280;3038;51.122;6.840;2022-11-12T16:00:13;102624.56;;;14.06;61.17
6020;BME280;3038;51.122;6.840;2022-11-12T16:02:40;102629.88;;;13.96;61.29
6020;BME280;3038;51.122;6.840;2022-11-12T16:05:11;102632.66;;;13.85;61.96
6020;BME280;3038;51.122;6.840;2022-11-12T16:07:37;102641.06;;;13.80;61.42
6020;BME280;3038;51.122;6.840;2022-11-12T16:10:02;102627.53;;;13.72;61.62
6020;BME280;3038;51.122;6.840;2022-11-12T16:12:28;102635.09;;;13.67;62.09
6020;BME280;3038;51.122;6.840;2022-11-12T16:14:54;102627.03;;;13.57;61.94
6020;BME280;3038;51.122;6.840;2022-11-12T16:17:19;102634.59;;;13.52;61.94
6020;BME280;3038;51.122;6.840;2022-11-12T16:19:45;102618.97;;;13.48;62.08
6020;BME280;3038;51.122;6.840;2022-11-12T16:22:10;102621.63;;;13.48;61.74
6020;BME280;3038;51.122;6.840;2022-11-12T16:24:39;102619.50;;;13.42;61.65
6020;BME280;3038;51.122;6.840;2022-11-12T16:27:05;102622.44;;;13.38;61.07
6020;BME280;3038;51.122;6.840;2022-11-12T16:29:34;102612.03;;;13.35;61.01
6020;BME280;3038;51.122;6.840;2022-11-12T16:32:00;102617.63;;;13.32;60.81
6020;BME280;3038;51.122;6.840;2022-11-12T16:34:25;102618.34;;;13.34;60.69
6020;BME280;3038;51.122;6.840;2022-11-12T16:36:50;102617.63;;;13.32;60.51
6020;BME280;3038;51.122;6.840;2022-11-12T16:39:16;102612.44;;;13.31;60.45
6020;BME280;3038;51.122;6.840;2022-11-12T16:41:41;102620.53;;;13.29;60.29
6020;BME280;3038;51.122;6.840;2022-11-12T16:44:07;102621.66;;;13.27;59.90
6020;BME280;3038;51.122;6.840;2022-11-12T16:46:37;102614.91;;;13.23;59.98
6020;BME280;3038;51.122;6.840;2022-11-12T16:49:05;102616.00;;;13.20;60.20
6020;BME280;3038;51.122;6.840;2022-11-12T16:51:34;102615.41;;;13.17;60.19
6020;BME280;3038;51.122;6.840;2022-11-12T16:54:00;102609.47;;;13.13;60.17
6020;BME280;3038;51.122;6.840;2022-11-12T16:56:25;102615.03;;;13.10;60.01
6020;BME280;3038;51.122;6.840;2022-11-12T16:58:51;102616.41;;;13.04;60.00
6020;BME280;3038;51.122;6.840;2022-11-12T17:01:26;102618.63;;;12.99;60.50
6020;BME280;3038;51.122;6.840;2022-11-12T17:03:53;102609.56;;;12.91;60.75
6020;BME280;3038;51.122;6.840;2022-11-12T17:06:20;102612.06;;;12.82;60.45
6020;BME280;3038;51.122;6.840;2022-11-12T17:08:47;102609.50;;;12.81;60.50
6020;BME280;3038;51.122;6.840;2022-11-12T17:11:15;102608.94;;;12.77;60.70
6020;BME280;3038;51.122;6.840;2022-11-12T17:13:41;102612.53;;;12.76;61.03
6020;BME280;3038;51.122;6.840;2022-11-12T17:16:08;102612.09;;;12.71;61.01
6020;BME280;3038;51.122;6.840;2022-11-12T17:18:34;102618.66;;;12.67;61.30
6020;BME280;3038;51.122;6.840;2022-11-12T17:21:14;102614.81;;;12.60;61.53
6020;BME280;3038;51.122;6.840;2022-11-12T17:23:40;102613.63;;;12.53;61.12
6020;BME280;3038;51.122;6.840;2022-11-12T17:26:10;102612.28;;;12.47;61.69
6020;BME280;3038;51.122;6.840;2022-11-12T17:28:35;102610.88;;;12.43;61.84
6020;BME280;3038;51.122;6.840;2022-11-12T17:31:04;102604.09;;;12.39;62.21
6020;BME280;3038;51.122;6.840;2022-11-12T17:33:30;102604.47;;;12.34;61.82
6020;BME280;3038;51.122;6.840;2022-11-12T17:36:00;102596.00;;;12.29;62.51
6020;BME280;3038;51.122;6.840;2022-11-12T17:38:27;102595.28;;;12.27;62.29
6020;BME280;3038;51.122;6.840;2022-11-12T17:40:57;102597.22;;;12.25;62.25
6020;BME280;3038;51.122;6.840;2022-11-12T17:43:23;102589.38;;;12.24;62.11
6020;BME280;3038;51.122;6.840;2022-11-12T17:45:50;102589.63;;;12.21;62.22
6020;BME280;3038;51.122;6.840;2022-11-12T17:48:16;102592.28;;;12.21;62.34
6020;BME280;3038;51.122;6.840;2022-11-12T17:50:46;102592.41;;;12.19;62.10
6020;BME280;3038;51.122;6.840;2022-11-12T17:53:13;102585.38;;;12.18;62.20
6020;BME280;3038;51.122;6.840;2022-11-12T17:55:42;102582.00;;;12.16;62.30
6020;BME280;3038;51.122;6.840;2022-11-12T17:58:11;102587.31;;;12.16;62.30
6020;BME280;3038;51.122;6.840;2022-11-12T18:00:40;102577.78;;;12.14;62.62
6020;BME280;3038;51.122;6.840;2022-11-12T18:03:08;102590.50;;;12.10;62.61
6020;BME280;3038;51.122;6.840;2022-11-12T18:05:42;102594.00;;;12.11;62.10
6020;BME280;3038;51.122;6.840;2022-11-12T18:08:14;102592.03;;;12.13;62.35
6020;BME280;3038;51.122;6.840;2022-11-12T18:10:51;102591.81;;;12.16;62.02
6020;BME280;3038;51.122;6.840;2022-11-12T18:13:47;102584.88;;;12.13;62.60
6020;BME280;3038;51.122;6.840;2022-11-12T18:16:30;102588.53;;;12.12;62.48
6020;BME280;3038;51.122;6.840;2022-11-12T18:18:56;102593.38;;;12.07;62.52
6020;BME280;3038;51.122;6.840;2022-11-12T18:21:28;102582.72;;;12.07;62.80
6020;BME280;3038;51.122;6.840;2022-11-12T18:27:45;102579.34;;;11.94;63.22
6020;BME280;3038;51.122;6.840;2022-11-12T18:30:42;102582.03;;;11.94;63.03
6020;BME280;3038;51.122;6.840;2022-11-12T18:33:14;102585.66;;;11.93;63.52
6020;BME280;3038;51.122;6.840;2022-11-12T18:36:03;102586.41;;;11.95;63.73
6020;BME280;3038;51.122;6.840;2022-11-12T18:38:52;102585.44;;;11.96;63.50
6020;BME280;3038;51.122;6.840;2022-11-12T18:41:25;102589.78;;;11.97;63.51
6020;BME280;3038;51.122;6.840;2022-11-12T18:43:55;102584.59;;;11.95;63.65
6020;BME280;3038;51.122;6.840;2022-11-12T18:46:21;102574.03;;;11.94;63.48
6020;BME280;3038;51.122;6.840;2022-11-12T18:48:47;102576.97;;;11.91;63.88
6020;BME280;3038;51.122;6.840;2022-11-12T18:51:15;102570.31;;;11.85;64.14
6020;BME280;3038;51.122;6.840;2022-11-12T18:53:46;102574.91;;;11.83;64.41
6020;BME280;3038;51.122;6.840;2022-11-12T18:56:14;102568.94;;;11.79;64.41
6020;BME280;3038;51.122;6.840;2022-11-12T18:58:44;102572.00;;;11.75;64.88
6020;BME280;3038;51.122;6.840;2022-11-12T19:01:19;102566.06;;;11.71;65.23
6020;BME280;3038;51.122;6.840;2022-11-12T19:03:45;102570.63;;;11.69;65.24
6020;BME280;3038;51.122;6.840;2022-11-12T19:06:21;102571.84;;;11.65;65.87
6020;BME280;3038;51.122;6.840;2022-11-12T19:08:50;102573.19;;;11.59;66.08
6020;BME280;3038;51.122;6.840;2022-11-12T19:11:17;102574.50;;;11.54;66.05
6020;BME280;3038;51.122;6.840;2022-11-12T19:13:50;102570.88;;;11.55;66.21
6020;BME280;3038;51.122;6.840;2022-11-12T19:16:28;102566.41;;;11.55;66.24
6020;BME280;3038;51.122;6.840;2022-11-12T19:18:54;102561.22;;;11.54;66.10
6020;BME280;3038;51.122;6.840;2022-11-12T19:21:22;102561.09;;;11.55;66.53
6020;BME280;3038;51.122;6.840;2022-11-12T19:23:55;102554.22;;;11.53;66.69
6020;BME280;3038;51.122;6.840;2022-11-12T19:26:25;102560.72;;;11.49;66.30
6020;BME280;3038;51.122;6.840;2022-11-12T19:28:53;102559.03;;;11.48;66.72
6020;BME280;3038;51.122;6.840;2022-11-12T19:31:21;102559.53;;;11.42;67.18
6020;BME280;3038;51.122;6.840;2022-11-12T19:33:52;102565.31;;;11.36;67.69
6020;BME280;3038;51.122;6.840;2022-11-12T19:36:25;102560.34;;;11.31;67.60
6020;BME280;3038;51.122;6.840;2022-11-12T19:38:55;102558.78;;;11.28;67.82
6020;BME280;3038;51.122;6.840;2022-11-12T19:41:39;102558.03;;;11.26;67.79
6020;BME280;3038;51.122;6.840;2022-11-12T19:44:05;102555.88;;;11.20;68.21
6020;BME280;3038;51.122;6.840;2022-11-12T19:46:31;102562.38;;;11.16;68.45
6020;BME280;3038;51.122;6.840;2022-11-12T19:49:05;102550.19;;;11.14;68.72
6020;BME280;3038;51.122;6.840;2022-11-12T19:51:30;102542.22;;;11.14;68.66
6020;BME280;3038;51.122;6.840;2022-11-12T19:54:00;102545.94;;;11.11;68.98
6020;BME280;3038;51.122;6.840;2022-11-12T19:56:26;102545.34;;;11.07;69.16
6020;BME280;3038;51.122;6.840;2022-11-12T19:58:51;102554.41;;;11.05;69.27
6020;BME280;3038;51.122;6.840;2022-11-12T20:01:22;102547.53;;;11.02;69.43
6020;BME280;3038;51.122;6.840;2022-11-12T20:03:50;102550.06;;;11.04;69.79
6020;BME280;3038;51.122;6.840;2022-11-12T20:06:45;102553.69;;;11.03;69.44
6020;BME280;3038;51.122;6.840;2022-11-12T20:09:13;102546.66;;;11.02;69.65
6020;BME280;3038;51.122;6.840;2022-11-12T20:11:39;102543.06;;;11.03;69.53
6020;BME280;3038;51.122;6.840;2022-11-12T20:14:10;102544.75;;;11.04;69.69
6020;BME280;3038;51.122;6.840;2022-11-12T20:16:39;102540.88;;;11.08;69.24
6020;BME280;3038;51.122;6.840;2022-11-12T20:19:05;102539.69;;;11.12;68.95
6020;BME280;3038;51.122;6.840;2022-11-12T20:21:30;102536.06;;;11.13;69.28
6020;BME280;3038;51.122;6.840;2022-11-12T20:24:06;102537.75;;;11.14;69.36
6020;BME280;3038;51.122;6.840;2022-11-12T20:26:42;102530.00;;;11.11;69.61
6020;BME280;3038;51.122;6.840;2022-11-12T20:29:15;102532.91;;;11.08;69.83
6020;BME280;3038;51.122;6.840;2022-11-12T20:32:00;102539.28;;;11.05;69.85
6020;BME280;3038;51.122;6.840;2022-11-12T20:34:26;102533.50;;;11.00;69.84
6020;BME280;3038;51.122;6.840;2022-11-12T20:37:06;102529.28;;;10.98;69.88
6020;BME280;3038;51.122;6.840;2022-11-12T20:42:59;102522.94;;;10.88;70.30
6020;BME280;3038;51.122;6.840;2022-11-12T20:45:48;102526.56;;;10.87;70.50
6020;BME280;3038;51.122;6.840;2022-11-12T20:48:43;102515.22;;;10.85;71.25
6020;BME280;3038;51.122;6.840;2022-11-12T20:51:17;102517.88;;;10.85;70.14
6020;BME280;3038;51.122;6.840;2022-11-12T20:53:55;102523.41;;;10.81;70.79
6020;BME280;3038;51.122;6.840;2022-11-12T20:56:42;102525.97;;;10.83;70.13
6020;BME280;3038;51.122;6.840;2022-11-12T20:59:17;102525.34;;;10.79;70.44
6020;BME280;3038;51.122;6.840;2022-11-12T21:02:17;102532.56;;;10.77;70.54
6020;BME280;3038;51.122;6.840;2022-11-12T21:04:52;102533.69;;;10.75;70.57
6020;BME280;3038;51.122;6.840;2022-11-12T21:07:19;102523.41;;;10.70;70.40
6020;BME280;3038;51.122;6.840;2022-11-12T21:09:57;102527.13;;;10.68;70.95
6020;BME280;3038;51.122;6.840;2022-11-12T21:12:40;102517.81;;;10.62;70.44
6020;BME280;3038;51.122;6.840;2022-11-12T21:15:08;102516.34;;;10.58;70.98
6020;BME280;3038;51.122;6.840;2022-11-12T21:18:07;102515.47;;;10.46;71.06
6020;BME280;3038;51.122;6.840;2022-11-12T21:21:16;102516.28;;;10.36;71.71
6020;BME280;3038;51.122;6.840;2022-11-12T21:24:00;102511.66;;;10.26;71.46
6020;BME280;3038;51.122;6.840;2022-11-12T21:27:09;102506.97;;;10.17;72.21
6020;BME280;3038;51.122;6.840;2022-11-12T21:29:38;102515.50;;;10.10;71.81
6020;BME280;3038;51.122;6.840;2022-11-12T21:32:19;102508.13;;;10.02;72.33
6020;BME280;3038;51.122;6.840;2022-11-12T21:35:09;102509.63;;;9.93;72.57
6020;BME280;3038;51.122;6.840;2022-11-12T21:37:37;102508.34;;;9.86;73.30
6020;BME280;3038;51.122;6.840;2022-11-12T21:40:10;102507.00;;;9.81;72.91
6020;BME280;3038;51.122;6.840;2022-11-12T21:42:35;102508.81;;;9.80;72.73
6020;BME280;3038;51.122;6.840;2022-11-12T21:45:10;102500.97;;;9.78;72.71
6020;BME280;3038;51.122;6.840;2022-11-12T21:47:57;102506.50;;;9.75;73.27
6020;BME280;3038;51.122;6.840;2022-11-12T21:50:55;102498.88;;;9.71;74.01
6020;BME280;3038;51.122;6.840;2022-11-12T21:56:24;102487.84;;;9.64;72.50
6020;BME280;3038;51.122;6.840;2022-11-12T22:02:56;102484.50;;;9.49;74.54
6020;BME280;3038;51.122;6.840;2022-11-12T22:05:42;102483.56;;;9.38;75.16
6020;BME280;3038;51.122;6.840;2022-11-12T22:08:36;102478.69;;;9.32;74.24
6020;BME280;3038;51.122;6.840;2022-11-12T22:11:15;102479.44;;;9.34;74.14
6020;BME280;3038;51.122;6.840;2022-11-12T22:14:06;102475.00;;;9.34;74.26
6020;BME280;3038;51.122;6.840;2022-11-12T22:16:43;102479.66;;;9.31;74.17
6020;BME280;3038;51.122;6.840;2022-11-12T22:19:32;102481.59;;;9.29;74.58
6020;BME280;3038;51.122;6.840;2022-11-12T22:23:28;102481.91;;;9.24;75.41
6020;BME280;3038;51.122;6.840;2022-11-12T22:26:39;102485.81;;;9.18;75.44
6020;BME280;3038;51.122;6.840;2022-11-12T23:01:16;102472.47;;;8.56;78.13
6020;BME280;3038;51.122;6.840;2022-11-12T23:04:45;102468.84;;;8.57;77.50
6020;BME280;3038;51.122;6.840;2022-11-12T23:08:22;102467.16;;;8.56;77.95
6020;BME280;3038;51.122;6.840;2022-11-12T23:15:40;102459.84;;;8.47;79.12
6020;BME280;3038;51.122;6.840;2022-11-12T23:23:21;102458.88;;;8.48;79.69
6020;BME280;3038;51.122;6.840;2022-11-12T23:31:46;102449.88;;;8.50;80.01
6020;BME280;3038;51.122;6.840;2022-11-12T23:47:22;102446.78;;;8.44;80.44
6020;BME280;3038;51.122;6.840;2022-11-12T23:57:57;102449.06;;;8.36;79.11
